Terminal Aerodrome Forecast
Issued by NWS

Home | Current Version | Previous Version | Text Only | Print | Product List | Glossary On
Versions: 1 2 3 4 5 6 7 8 9 10 11 12 13
000
FTUS46 KPDT 282300
TAFDLS
TAF
KDLS 282321Z 2900/2924 30008KT P6SM VCSH SCT040 BKN100
     FM290600 31006KT P6SM VCSH SCT030 OVC070
     FM291200 30004KT 5SM -SN BR BKN020 OVC040
     FM291800 03010KT P6SM SCT040 BKN100=

USA.gov is the U.S. government's official web portal to all federal, state and local government web resources and services.